F/V Jeremi Simon — FHAF — position and weather

sailwx.info

Track history (hours):
 
Tides and Currents Weather Stations Pressure Air Temp Water Temp Dewpoint Dewpoint Depression Visibility Wind Speed Wind Dir Waves Ship Positions

F/V Jeremi Simon

Last reported at 2015-Sep-01 15:34 UTC. Time now 2015-Sep-01 18:11 UTC.
Position N 46°42' W 001°57'.

Length 20 m.

Type: Other ship. MMSI: 227415000.

Date/timePositionNaut miles runAvg speedWind from/ knotsBaromVisibWave heightAir tempDewpointWater temp
2015-Sep-01 15:34N 46°42' W 001°57'0 0.0
2015-Sep-01 14:34N 46°42' W 001°57'1 1.3
2015-Sep-01 13:33N 46°41' W 001°57'0 0.0
2015-Sep-01 12:33N 46°41' W 001°57'4 4.0
2015-Sep-01 11:33N 46°39' W 002°03'9 8.8
2015-Sep-01 10:32N 46°36' W 002°15'0 0.3
2015-Sep-01 09:34N 46°36' W 002°15'0 0.3
2015-Sep-01 08:32N 46°35' W 002°16'2 2.1
2015-Sep-01 07:32N 46°34' W 002°14'2 1.1
2015-Sep-01 06:10N 46°35' W 002°15'2 2.1
2015-Sep-01 05:21N 46°34' W 002°13'3 3.5
2015-Sep-01 04:33N 46°33' W 002°09'5 5.2
2015-Sep-01 03:33N 46°37' W 002°04'7 6.7
2015-Sep-01 02:29N 46°42' W 001°56'0 0.0
2015-Aug-31 15:33N 46°42' W 001°56'0 0.1
2015-Aug-31 14:33N 46°42' W 001°56'0 0.0
2015-Aug-31 13:33N 46°42' W 001°57'1 1.1
2015-Aug-31 12:33N 46°41' W 001°58'7 7.0
2015-Aug-31 11:33N 46°38' W 002°07'8 4.1
2015-Aug-31 09:33N 46°35' W 002°18'5 4.6
2015-Aug-31 08:32N 46°33' W 002°12'1 0.6
2015-Aug-31 06:33N 46°32' W 002°11'1 1.4
2015-Aug-31 05:33N 46°31' W 002°09'1 1.2
2015-Aug-31 04:33N 46°30' W 002°09'9 8.7
2015-Aug-31 03:33N 46°37' W 002°01'6 5.7
2015-Aug-31 02:33N 46°42' W 001°57'0 0.0
2015-Aug-30 18:12N 46°42' W 001°57'0 0.0
2015-Aug-30 17:33N 46°42' W 001°57'0 0.0
2015-Aug-30 16:33N 46°42' W 001°57'0 0.0
2015-Aug-30 15:23N 46°42' W 001°57'0 0.1
2015-Aug-30 14:33N 46°42' W 001°56'0 0.0
2015-Aug-30 13:33N 46°42' W 001°56'4 4.4
2015-Aug-30 12:34N 46°39' W 002°01'10 9.7
2015-Aug-30 11:32N 46°33' W 002°12'5 5.1
2015-Aug-30 10:33N 46°28' W 002°16'2 1.2
2015-Aug-30 09:15N 46°27' W 002°16'1 1.0
2015-Aug-30 08:32N 46°27' W 002°15'2 2.0
2015-Aug-30 07:33N 46°27' W 002°12'0 0.5
2015-Aug-30 06:33N 46°27' W 002°12'1 0.9
2015-Aug-30 05:31N 46°28' W 002°12'5 5.2
2015-Aug-30 04:33N 46°32' W 002°06'10 9.6
2015-Aug-30 03:33N 46°40' W 001°59'  
2015-Aug-27 22:31N 46°42' W 001°57'2 1.8
2015-Aug-27 21:33N 46°41' W 001°58'0 0.1
2015-Aug-27 20:33N 46°41' W 001°58'2 2.4
2015-Aug-27 19:33N 46°39' W 002°01'7 7.1
2015-Aug-27 18:33N 46°34' W 002°08'7 6.8
2015-Aug-27 17:32N 46°29' W 002°15'15 1.1
2015-Aug-27 04:12N 46°43' W 002°08'6 8.7
2015-Aug-27 03:33N 46°41' W 002°00'  
2015-Aug-22 23:33N 46°41' W 001°57'  
Track history (hours):
 
Tides and Currents Weather Stations Pressure Air Temp Water Temp Dewpoint Dewpoint Depression Visibility Wind Speed Wind Dir Waves Ship Positions

F/V Jeremi Simon

Last reported at 2015-Sep-01 15:34 UTC. Time now 2015-Sep-01 18:11 UTC.
Position N 46°42' W 001°57'.

Length 20 m.

Type: Other ship. MMSI: 227415000.

Date/timePositionNaut miles runAvg speedWind from/ knotsBaromVisibWave heightAir tempDewpointWater temp
2015-Sep-01 15:34N 46°42' W 001°57'0 0.0
2015-Sep-01 14:34N 46°42' W 001°57'1 1.3
2015-Sep-01 13:33N 46°41' W 001°57'0 0.0
2015-Sep-01 12:33N 46°41' W 001°57'4 4.0
2015-Sep-01 11:33N 46°39' W 002°03'9 8.8
2015-Sep-01 10:32N 46°36' W 002°15'0 0.3
2015-Sep-01 09:34N 46°36' W 002°15'0 0.3
2015-Sep-01 08:32N 46°35' W 002°16'2 2.1
2015-Sep-01 07:32N 46°34' W 002°14'2 1.1
2015-Sep-01 06:10N 46°35' W 002°15'2 2.1
2015-Sep-01 05:21N 46°34' W 002°13'3 3.5
2015-Sep-01 04:33N 46°33' W 002°09'5 5.2
2015-Sep-01 03:33N 46°37' W 002°04'7 6.7
2015-Sep-01 02:29N 46°42' W 001°56'0 0.0
2015-Aug-31 15:33N 46°42' W 001°56'0 0.1
2015-Aug-31 14:33N 46°42' W 001°56'0 0.0
2015-Aug-31 13:33N 46°42' W 001°57'1 1.1
2015-Aug-31 12:33N 46°41' W 001°58'7 7.0
2015-Aug-31 11:33N 46°38' W 002°07'8 4.1
2015-Aug-31 09:33N 46°35' W 002°18'5 4.6
2015-Aug-31 08:32N 46°33' W 002°12'1 0.6
2015-Aug-31 06:33N 46°32' W 002°11'1 1.4
2015-Aug-31 05:33N 46°31' W 002°09'1 1.2
2015-Aug-31 04:33N 46°30' W 002°09'9 8.7
2015-Aug-31 03:33N 46°37' W 002°01'6 5.7
2015-Aug-31 02:33N 46°42' W 001°57'0 0.0
2015-Aug-30 18:12N 46°42' W 001°57'0 0.0
2015-Aug-30 17:33N 46°42' W 001°57'0 0.0
2015-Aug-30 16:33N 46°42' W 001°57'0 0.0
2015-Aug-30 15:23N 46°42' W 001°57'0 0.1
2015-Aug-30 14:33N 46°42' W 001°56'0 0.0
2015-Aug-30 13:33N 46°42' W 001°56'4 4.4
2015-Aug-30 12:34N 46°39' W 002°01'10 9.7
2015-Aug-30 11:32N 46°33' W 002°12'5 5.1
2015-Aug-30 10:33N 46°28' W 002°16'2 1.2
2015-Aug-30 09:15N 46°27' W 002°16'1 1.0
2015-Aug-30 08:32N 46°27' W 002°15'2 2.0
2015-Aug-30 07:33N 46°27' W 002°12'0 0.5
2015-Aug-30 06:33N 46°27' W 002°12'1 0.9
2015-Aug-30 05:31N 46°28' W 002°12'5 5.2
2015-Aug-30 04:33N 46°32' W 002°06'10 9.6
2015-Aug-30 03:33N 46°40' W 001°59'  
2015-Aug-27 22:31N 46°42' W 001°57'2 1.8
2015-Aug-27 21:33N 46°41' W 001°58'0 0.1
2015-Aug-27 20:33N 46°41' W 001°58'2 2.4
2015-Aug-27 19:33N 46°39' W 002°01'7 7.1
2015-Aug-27 18:33N 46°34' W 002°08'7 6.8
2015-Aug-27 17:32N 46°29' W 002°15'15 1.1
2015-Aug-27 04:12N 46°43' W 002°08'6 8.7
2015-Aug-27 03:33N 46°41' W 002°00'  
2015-Aug-22 23:33N 46°41' W 001°57'  

Dump ship's entire track history